sensor_id;sensor_type;location;lat;lon;timestamp;P1;durP1;ratioP1;P2;durP2;ratioP2
22603;SDS011;11469;49.024;8.246;2023-07-16T00:02:23;2.92;;;1.90;;
22603;SDS011;11469;49.024;8.246;2023-07-16T00:04:48;7.63;;;2.15;;
22603;SDS011;11469;49.024;8.246;2023-07-16T00:07:14;2.97;;;1.83;;
22603;SDS011;11469;49.024;8.246;2023-07-16T00:09:39;2.95;;;1.90;;
22603;SDS011;11469;49.024;8.246;2023-07-16T00:12:05;5.63;;;1.92;;
22603;SDS011;11469;49.024;8.246;2023-07-16T00:14:30;4.85;;;2.03;;
22603;SDS011;11469;49.024;8.246;2023-07-16T00:16:57;7.20;;;2.22;;
22603;SDS011;11469;49.024;8.246;2023-07-16T00:19:22;7.47;;;2.28;;
22603;SDS011;11469;49.024;8.246;2023-07-16T00:21:48;4.00;;;1.92;;
22603;SDS011;11469;49.024;8.246;2023-07-16T00:24:13;9.23;;;2.10;;
22603;SDS011;11469;49.024;8.246;2023-07-16T00:26:38;7.65;;;2.20;;
22603;SDS011;11469;49.024;8.246;2023-07-16T00:29:04;6.80;;;2.10;;
22603;SDS011;11469;49.024;8.246;2023-07-16T00:31:30;2.25;;;1.55;;
22603;SDS011;11469;49.024;8.246;2023-07-16T00:33:55;4.60;;;1.98;;
22603;SDS011;11469;49.024;8.246;2023-07-16T00:36:21;6.57;;;2.17;;
22603;SDS011;11469;49.024;8.246;2023-07-16T00:38:46;4.20;;;1.67;;
22603;SDS011;11469;49.024;8.246;2023-07-16T00:41:14;4.70;;;1.70;;
22603;SDS011;11469;49.024;8.246;2023-07-16T00:43:40;4.88;;;1.70;;
22603;SDS011;11469;49.024;8.246;2023-07-16T00:46:05;2.63;;;1.38;;
22603;SDS011;11469;49.024;8.246;2023-07-16T00:48:30;6.13;;;1.75;;
22603;SDS011;11469;49.024;8.246;2023-07-16T00:50:56;2.85;;;1.80;;
22603;SDS011;11469;49.024;8.246;2023-07-16T00:53:22;2.53;;;1.55;;
22603;SDS011;11469;49.024;8.246;2023-07-16T00:55:48;3.72;;;1.85;;
22603;SDS011;11469;49.024;8.246;2023-07-16T00:58:13;4.93;;;1.48;;
22603;SDS011;11469;49.024;8.246;2023-07-16T01:00:41;4.07;;;1.67;;
22603;SDS011;11469;49.024;8.246;2023-07-16T01:03:07;3.53;;;1.83;;
22603;SDS011;11469;49.024;8.246;2023-07-16T01:05:36;3.13;;;1.33;;
22603;SDS011;11469;49.024;8.246;2023-07-16T01:08:21;3.63;;;1.85;;
22603;SDS011;11469;49.024;8.246;2023-07-16T01:11:03;5.07;;;1.47;;
22603;SDS011;11469;49.024;8.246;2023-07-16T01:13:29;2.15;;;1.30;;
22603;SDS011;11469;49.024;8.246;2023-07-16T01:15:55;2.30;;;1.60;;
22603;SDS011;11469;49.024;8.246;2023-07-16T01:18:21;3.90;;;1.90;;
22603;SDS011;11469;49.024;8.246;2023-07-16T01:20:46;5.88;;;1.58;;
22603;SDS011;11469;49.024;8.246;2023-07-16T01:26:05;2.95;;;1.70;;
22603;SDS011;11469;49.024;8.246;2023-07-16T01:31:21;3.15;;;1.83;;
22603;SDS011;11469;49.024;8.246;2023-07-16T01:33:48;6.05;;;1.80;;
22603;SDS011;11469;49.024;8.246;2023-07-16T01:36:14;5.40;;;1.70;;
22603;SDS011;11469;49.024;8.246;2023-07-16T01:38:41;4.35;;;1.60;;
22603;SDS011;11469;49.024;8.246;2023-07-16T01:41:07;2.25;;;1.30;;
22603;SDS011;11469;49.024;8.246;2023-07-16T01:43:32;2.58;;;1.70;;
22603;SDS011;11469;49.024;8.246;2023-07-16T01:45:58;5.05;;;1.75;;
22603;SDS011;11469;49.024;8.246;2023-07-16T01:48:35;3.78;;;1.90;;
22603;SDS011;11469;49.024;8.246;2023-07-16T01:51:02;3.35;;;1.63;;
22603;SDS011;11469;49.024;8.246;2023-07-16T01:53:28;3.92;;;1.67;;
22603;SDS011;11469;49.024;8.246;2023-07-16T01:55:54;12.02;;;1.60;;
22603;SDS011;11469;49.024;8.246;2023-07-16T01:58:20;3.25;;;1.40;;
22603;SDS011;11469;49.024;8.246;2023-07-16T02:00:45;2.45;;;1.50;;
22603;SDS011;11469;49.024;8.246;2023-07-16T02:03:11;9.20;;;1.75;;
22603;SDS011;11469;49.024;8.246;2023-07-16T02:05:36;4.97;;;1.70;;
22603;SDS011;11469;49.024;8.246;2023-07-16T02:08:02;7.80;;;1.52;;
22603;SDS011;11469;49.024;8.246;2023-07-16T02:10:27;3.10;;;1.45;;
22603;SDS011;11469;49.024;8.246;2023-07-16T02:12:52;5.63;;;2.03;;
22603;SDS011;11469;49.024;8.246;2023-07-16T02:15:18;5.93;;;1.60;;
22603;SDS011;11469;49.024;8.246;2023-07-16T02:17:44;5.35;;;1.42;;
22603;SDS011;11469;49.024;8.246;2023-07-16T02:20:10;2.55;;;1.48;;
22603;SDS011;11469;49.024;8.246;2023-07-16T02:22:36;6.30;;;1.80;;
22603;SDS011;11469;49.024;8.246;2023-07-16T02:25:02;6.28;;;2.03;;
22603;SDS011;11469;49.024;8.246;2023-07-16T02:27:28;5.53;;;1.42;;
22603;SDS011;11469;49.024;8.246;2023-07-16T02:29:54;2.38;;;1.50;;
22603;SDS011;11469;49.024;8.246;2023-07-16T02:32:19;4.18;;;1.75;;
22603;SDS011;11469;49.024;8.246;2023-07-16T02:34:45;4.05;;;1.58;;
22603;SDS011;11469;49.024;8.246;2023-07-16T02:37:10;4.05;;;1.73;;
22603;SDS011;11469;49.024;8.246;2023-07-16T02:39:36;4.30;;;1.70;;
22603;SDS011;11469;49.024;8.246;2023-07-16T02:42:01;7.70;;;1.85;;
22603;SDS011;11469;49.024;8.246;2023-07-16T02:44:26;4.38;;;1.77;;
22603;SDS011;11469;49.024;8.246;2023-07-16T02:46:52;8.05;;;1.83;;
22603;SDS011;11469;49.024;8.246;2023-07-16T02:49:17;3.85;;;1.88;;
22603;SDS011;11469;49.024;8.246;2023-07-16T02:51:43;5.82;;;2.03;;
22603;SDS011;11469;49.024;8.246;2023-07-16T02:54:08;5.20;;;1.70;;
22603;SDS011;11469;49.024;8.246;2023-07-16T02:56:34;5.65;;;1.70;;
22603;SDS011;11469;49.024;8.246;2023-07-16T02:58:59;6.60;;;2.13;;
22603;SDS011;11469;49.024;8.246;2023-07-16T03:01:24;6.35;;;1.70;;
22603;SDS011;11469;49.024;8.246;2023-07-16T03:03:50;4.60;;;1.90;;
22603;SDS011;11469;49.024;8.246;2023-07-16T03:06:16;5.38;;;1.70;;
22603;SDS011;11469;49.024;8.246;2023-07-16T03:08:41;3.65;;;1.90;;
22603;SDS011;11469;49.024;8.246;2023-07-16T03:11:06;4.32;;;1.67;;
22603;SDS011;11469;49.024;8.246;2023-07-16T03:13:32;6.20;;;2.00;;
22603;SDS011;11469;49.024;8.246;2023-07-16T03:15:58;5.10;;;1.77;;
22603;SDS011;11469;49.024;8.246;2023-07-16T03:18:27;5.07;;;1.60;;
22603;SDS011;11469;49.024;8.246;2023-07-16T03:20:53;2.38;;;1.30;;
22603;SDS011;11469;49.024;8.246;2023-07-16T03:23:19;6.45;;;1.60;;
22603;SDS011;11469;49.024;8.246;2023-07-16T03:25:44;5.13;;;1.88;;
22603;SDS011;11469;49.024;8.246;2023-07-16T03:28:09;5.20;;;1.83;;
22603;SDS011;11469;49.024;8.246;2023-07-16T03:30:35;5.82;;;1.88;;
22603;SDS011;11469;49.024;8.246;2023-07-16T03:33:02;4.68;;;1.80;;
22603;SDS011;11469;49.024;8.246;2023-07-16T03:35:28;9.35;;;1.85;;
22603;SDS011;11469;49.024;8.246;2023-07-16T03:37:53;4.60;;;1.70;;
22603;SDS011;11469;49.024;8.246;2023-07-16T03:40:23;6.10;;;1.80;;
22603;SDS011;11469;49.024;8.246;2023-07-16T03:42:50;5.90;;;1.90;;
22603;SDS011;11469;49.024;8.246;2023-07-16T03:45:15;6.43;;;1.70;;
22603;SDS011;11469;49.024;8.246;2023-07-16T03:47:40;4.10;;;1.73;;
22603;SDS011;11469;49.024;8.246;2023-07-16T03:50:06;11.13;;;2.00;;
22603;SDS011;11469;49.024;8.246;2023-07-16T03:52:32;3.92;;;1.98;;
22603;SDS011;11469;49.024;8.246;2023-07-16T03:54:57;5.25;;;1.85;;
22603;SDS011;11469;49.024;8.246;2023-07-16T03:57:23;4.20;;;1.75;;
22603;SDS011;11469;49.024;8.246;2023-07-16T03:59:48;5.57;;;2.15;;
22603;SDS011;11469;49.024;8.246;2023-07-16T04:02:14;4.85;;;2.00;;
22603;SDS011;11469;49.024;8.246;2023-07-16T04:04:39;8.85;;;2.20;;
22603;SDS011;11469;49.024;8.246;2023-07-16T04:07:04;6.85;;;2.08;;
22603;SDS011;11469;49.024;8.246;2023-07-16T04:09:30;5.20;;;2.17;;
22603;SDS011;11469;49.024;8.246;2023-07-16T04:11:55;9.95;;;2.38;;
22603;SDS011;11469;49.024;8.246;2023-07-16T04:14:21;5.28;;;2.30;;
22603;SDS011;11469;49.024;8.246;2023-07-16T04:16:46;9.38;;;2.30;;
22603;SDS011;11469;49.024;8.246;2023-07-16T04:19:12;5.43;;;2.00;;
22603;SDS011;11469;49.024;8.246;2023-07-16T04:21:37;4.22;;;1.92;;
22603;SDS011;11469;49.024;8.246;2023-07-16T04:24:04;14.23;;;2.30;;
22603;SDS011;11469;49.024;8.246;2023-07-16T04:26:30;6.38;;;2.03;;
22603;SDS011;11469;49.024;8.246;2023-07-16T04:28:56;8.98;;;2.42;;
22603;SDS011;11469;49.024;8.246;2023-07-16T04:31:21;6.22;;;2.58;;
22603;SDS011;11469;49.024;8.246;2023-07-16T04:33:46;6.47;;;1.83;;
22603;SDS011;11469;49.024;8.246;2023-07-16T04:36:12;3.80;;;1.80;;
22603;SDS011;11469;49.024;8.246;2023-07-16T04:38:38;4.95;;;1.92;;
22603;SDS011;11469;49.024;8.246;2023-07-16T04:41:03;3.28;;;1.58;;
22603;SDS011;11469;49.024;8.246;2023-07-16T04:43:28;4.00;;;2.05;;
22603;SDS011;11469;49.024;8.246;2023-07-16T04:45:54;6.85;;;1.85;;
22603;SDS011;11469;49.024;8.246;2023-07-16T04:48:19;5.18;;;2.10;;
22603;SDS011;11469;49.024;8.246;2023-07-16T04:50:44;7.32;;;2.20;;
22603;SDS011;11469;49.024;8.246;2023-07-16T04:53:10;6.60;;;2.05;;
22603;SDS011;11469;49.024;8.246;2023-07-16T04:55:39;6.20;;;1.95;;
22603;SDS011;11469;49.024;8.246;2023-07-16T04:58:05;6.03;;;1.73;;
22603;SDS011;11469;49.024;8.246;2023-07-16T05:00:31;7.22;;;1.67;;
22603;SDS011;11469;49.024;8.246;2023-07-16T05:02:57;4.82;;;1.75;;
22603;SDS011;11469;49.024;8.246;2023-07-16T05:05:23;7.10;;;1.92;;
22603;SDS011;11469;49.024;8.246;2023-07-16T05:07:48;4.22;;;2.08;;
22603;SDS011;11469;49.024;8.246;2023-07-16T05:10:13;7.47;;;2.47;;
22603;SDS011;11469;49.024;8.246;2023-07-16T05:12:39;5.07;;;1.73;;
22603;SDS011;11469;49.024;8.246;2023-07-16T05:15:04;7.28;;;1.92;;
22603;SDS011;11469;49.024;8.246;2023-07-16T05:17:30;9.68;;;2.55;;
22603;SDS011;11469;49.024;8.246;2023-07-16T05:19:55;4.15;;;1.83;;
22603;SDS011;11469;49.024;8.246;2023-07-16T05:22:21;10.13;;;2.00;;
22603;SDS011;11469;49.024;8.246;2023-07-16T05:24:46;5.45;;;1.83;;
22603;SDS011;11469;49.024;8.246;2023-07-16T05:27:12;6.47;;;1.83;;
22603;SDS011;11469;49.024;8.246;2023-07-16T05:29:37;5.97;;;1.90;;
22603;SDS011;11469;49.024;8.246;2023-07-16T05:32:03;6.38;;;1.98;;
22603;SDS011;11469;49.024;8.246;2023-07-16T05:34:28;5.35;;;1.60;;
22603;SDS011;11469;49.024;8.246;2023-07-16T05:36:54;6.05;;;1.88;;
22603;SDS011;11469;49.024;8.246;2023-07-16T05:39:20;6.85;;;1.55;;
22603;SDS011;11469;49.024;8.246;2023-07-16T05:41:46;6.63;;;1.80;;
22603;SDS011;11469;49.024;8.246;2023-07-16T05:44:12;4.38;;;1.75;;
22603;SDS011;11469;49.024;8.246;2023-07-16T05:46:38;2.80;;;1.58;;
22603;SDS011;11469;49.024;8.246;2023-07-16T05:49:04;7.57;;;1.50;;
22603;SDS011;11469;49.024;8.246;2023-07-16T05:51:29;7.53;;;2.10;;
22603;SDS011;11469;49.024;8.246;2023-07-16T05:53:55;8.00;;;1.80;;
22603;SDS011;11469;49.024;8.246;2023-07-16T05:56:20;3.50;;;1.52;;
22603;SDS011;11469;49.024;8.246;2023-07-16T05:58:45;6.75;;;1.60;;
22603;SDS011;11469;49.024;8.246;2023-07-16T06:01:11;5.20;;;1.88;;
22603;SDS011;11469;49.024;8.246;2023-07-16T06:03:36;8.85;;;1.70;;
22603;SDS011;11469;49.024;8.246;2023-07-16T06:06:01;5.95;;;1.95;;
22603;SDS011;11469;49.024;8.246;2023-07-16T06:08:27;4.35;;;1.55;;
22603;SDS011;11469;49.024;8.246;2023-07-16T06:10:53;6.57;;;1.42;;
22603;SDS011;11469;49.024;8.246;2023-07-16T06:13:18;3.25;;;1.48;;
22603;SDS011;11469;49.024;8.246;2023-07-16T06:15:43;5.35;;;1.30;;
22603;SDS011;11469;49.024;8.246;2023-07-16T06:18:11;8.30;;;1.42;;
22603;SDS011;11469;49.024;8.246;2023-07-16T06:20:36;9.07;;;2.20;;
22603;SDS011;11469;49.024;8.246;2023-07-16T06:23:02;4.40;;;1.60;;
22603;SDS011;11469;49.024;8.246;2023-07-16T06:25:27;9.20;;;1.60;;
22603;SDS011;11469;49.024;8.246;2023-07-16T06:27:53;8.45;;;2.15;;
22603;SDS011;11469;49.024;8.246;2023-07-16T06:30:18;6.35;;;1.70;;
22603;SDS011;11469;49.024;8.246;2023-07-16T06:32:43;7.40;;;2.33;;
22603;SDS011;11469;49.024;8.246;2023-07-16T06:35:09;9.15;;;1.77;;
22603;SDS011;11469;49.024;8.246;2023-07-16T06:37:34;4.97;;;1.50;;
22603;SDS011;11469;49.024;8.246;2023-07-16T06:39:59;9.50;;;1.92;;
22603;SDS011;11469;49.024;8.246;2023-07-16T06:42:25;6.88;;;1.70;;
22603;SDS011;11469;49.024;8.246;2023-07-16T06:44:50;9.25;;;1.80;;
22603;SDS011;11469;49.024;8.246;2023-07-16T06:47:16;6.82;;;1.77;;
22603;SDS011;11469;49.024;8.246;2023-07-16T06:49:41;7.15;;;1.52;;
22603;SDS011;11469;49.024;8.246;2023-07-16T06:52:07;6.78;;;1.80;;
22603;SDS011;11469;49.024;8.246;2023-07-16T06:54:32;5.47;;;1.83;;
22603;SDS011;11469;49.024;8.246;2023-07-16T06:56:58;6.22;;;1.48;;
22603;SDS011;11469;49.024;8.246;2023-07-16T06:59:23;7.78;;;1.92;;
22603;SDS011;11469;49.024;8.246;2023-07-16T07:01:48;9.43;;;2.03;;
22603;SDS011;11469;49.024;8.246;2023-07-16T07:04:14;6.68;;;1.63;;
22603;SDS011;11469;49.024;8.246;2023-07-16T07:06:39;6.65;;;2.20;;
22603;SDS011;11469;49.024;8.246;2023-07-16T07:09:05;15.00;;;2.83;;
22603;SDS011;11469;49.024;8.246;2023-07-16T07:11:30;4.70;;;1.63;;
22603;SDS011;11469;49.024;8.246;2023-07-16T07:13:56;9.63;;;1.80;;
22603;SDS011;11469;49.024;8.246;2023-07-16T07:16:22;10.27;;;1.70;;
22603;SDS011;11469;49.024;8.246;2023-07-16T07:18:48;10.35;;;1.85;;
22603;SDS011;11469;49.024;8.246;2023-07-16T07:21:14;12.85;;;2.00;;
22603;SDS011;11469;49.024;8.246;2023-07-16T07:23:39;10.77;;;1.95;;
22603;SDS011;11469;49.024;8.246;2023-07-16T07:26:05;5.03;;;1.50;;
22603;SDS011;11469;49.024;8.246;2023-07-16T07:28:30;7.03;;;2.03;;
22603;SDS011;11469;49.024;8.246;2023-07-16T07:30:56;8.07;;;2.10;;
22603;SDS011;11469;49.024;8.246;2023-07-16T07:33:21;6.60;;;1.98;;
22603;SDS011;11469;49.024;8.246;2023-07-16T07:35:47;11.43;;;2.33;;
22603;SDS011;11469;49.024;8.246;2023-07-16T07:38:12;11.98;;;2.00;;
22603;SDS011;11469;49.024;8.246;2023-07-16T07:40:37;12.38;;;2.10;;
22603;SDS011;11469;49.024;8.246;2023-07-16T07:43:03;8.35;;;2.17;;
22603;SDS011;11469;49.024;8.246;2023-07-16T07:45:28;12.63;;;2.03;;
22603;SDS011;11469;49.024;8.246;2023-07-16T07:47:54;9.25;;;2.10;;
22603;SDS011;11469;49.024;8.246;2023-07-16T07:50:19;12.07;;;2.40;;
22603;SDS011;11469;49.024;8.246;2023-07-16T07:52:45;8.82;;;2.08;;
22603;SDS011;11469;49.024;8.246;2023-07-16T07:55:10;14.68;;;3.00;;
22603;SDS011;11469;49.024;8.246;2023-07-16T07:57:35;8.88;;;2.03;;
22603;SDS011;11469;49.024;8.246;2023-07-16T08:00:01;10.10;;;2.50;;
22603;SDS011;11469;49.024;8.246;2023-07-16T08:02:26;11.25;;;2.25;;
22603;SDS011;11469;49.024;8.246;2023-07-16T08:04:52;12.52;;;2.25;;
22603;SDS011;11469;49.024;8.246;2023-07-16T08:07:19;12.25;;;2.25;;
22603;SDS011;11469;49.024;8.246;2023-07-16T08:09:45;8.80;;;2.30;;
22603;SDS011;11469;49.024;8.246;2023-07-16T08:12:11;6.88;;;2.10;;
22603;SDS011;11469;49.024;8.246;2023-07-16T08:14:37;9.13;;;2.42;;
22603;SDS011;11469;49.024;8.246;2023-07-16T08:17:02;10.18;;;2.65;;
22603;SDS011;11469;49.024;8.246;2023-07-16T08:19:28;11.82;;;2.33;;
22603;SDS011;11469;49.024;8.246;2023-07-16T08:21:53;7.25;;;2.10;;
22603;SDS011;11469;49.024;8.246;2023-07-16T08:24:19;7.90;;;2.17;;
22603;SDS011;11469;49.024;8.246;2023-07-16T08:26:44;8.85;;;2.65;;
22603;SDS011;11469;49.024;8.246;2023-07-16T08:29:10;13.23;;;2.55;;
22603;SDS011;11469;49.024;8.246;2023-07-16T08:31:35;14.27;;;2.88;;
22603;SDS011;11469;49.024;8.246;2023-07-16T08:34:00;11.57;;;2.28;;
22603;SDS011;11469;49.024;8.246;2023-07-16T08:36:26;13.18;;;2.25;;
22603;SDS011;11469;49.024;8.246;2023-07-16T08:38:51;6.72;;;1.73;;
22603;SDS011;11469;49.024;8.246;2023-07-16T08:41:17;7.70;;;2.60;;
22603;SDS011;11469;49.024;8.246;2023-07-16T08:43:43;10.35;;;2.60;;
22603;SDS011;11469;49.024;8.246;2023-07-16T08:46:12;9.77;;;2.70;;
22603;SDS011;11469;49.024;8.246;2023-07-16T08:48:38;10.95;;;2.63;;
22603;SDS011;11469;49.024;8.246;2023-07-16T08:51:04;9.55;;;2.58;;
22603;SDS011;11469;49.024;8.246;2023-07-16T08:53:31;11.00;;;2.45;;
22603;SDS011;11469;49.024;8.246;2023-07-16T08:55:56;11.00;;;2.78;;
22603;SDS011;11469;49.024;8.246;2023-07-16T08:58:23;9.73;;;2.92;;
22603;SDS011;11469;49.024;8.246;2023-07-16T09:00:49;15.25;;;3.00;;
22603;SDS011;11469;49.024;8.246;2023-07-16T09:03:14;18.10;;;2.92;;
22603;SDS011;11469;49.024;8.246;2023-07-16T09:05:46;11.75;;;2.45;;
22603;SDS011;11469;49.024;8.246;2023-07-16T09:08:12;11.50;;;2.75;;
22603;SDS011;11469;49.024;8.246;2023-07-16T09:10:39;11.07;;;2.35;;
22603;SDS011;11469;49.024;8.246;2023-07-16T09:13:06;11.02;;;2.80;;
22603;SDS011;11469;49.024;8.246;2023-07-16T09:15:31;7.70;;;2.38;;
22603;SDS011;11469;49.024;8.246;2023-07-16T09:17:59;12.30;;;2.83;;
22603;SDS011;11469;49.024;8.246;2023-07-16T09:20:25;10.15;;;2.70;;
22603;SDS011;11469;49.024;8.246;2023-07-16T09:22:55;11.98;;;2.72;;
22603;SDS011;11469;49.024;8.246;2023-07-16T09:25:30;15.30;;;2.88;;
22603;SDS011;11469;49.024;8.246;2023-07-16T09:28:02;9.82;;;3.08;;
22603;SDS011;11469;49.024;8.246;2023-07-16T09:30:31;10.48;;;2.50;;
22603;SDS011;11469;49.024;8.246;2023-07-16T09:35:56;11.05;;;2.50;;
22603;SDS011;11469;49.024;8.246;2023-07-16T09:38:21;12.57;;;2.75;;
22603;SDS011;11469;49.024;8.246;2023-07-16T09:40:49;14.52;;;2.67;;
22603;SDS011;11469;49.024;8.246;2023-07-16T09:43:14;9.73;;;2.55;;
22603;SDS011;11469;49.024;8.246;2023-07-16T09:45:41;11.13;;;2.67;;
22603;SDS011;11469;49.024;8.246;2023-07-16T09:48:07;10.27;;;2.92;;
22603;SDS011;11469;49.024;8.246;2023-07-16T09:50:34;13.48;;;2.92;;
22603;SDS011;11469;49.024;8.246;2023-07-16T09:53:01;11.80;;;2.50;;
22603;SDS011;11469;49.024;8.246;2023-07-16T09:55:32;13.02;;;2.10;;
22603;SDS011;11469;49.024;8.246;2023-07-16T09:57:59;10.05;;;2.40;;
22603;SDS011;11469;49.024;8.246;2023-07-16T10:00:27;9.02;;;2.95;;
22603;SDS011;11469;49.024;8.246;2023-07-16T10:02:53;11.43;;;2.45;;
22603;SDS011;11469;49.024;8.246;2023-07-16T10:05:26;7.60;;;2.33;;
22603;SDS011;11469;49.024;8.246;2023-07-16T10:07:53;10.48;;;2.67;;
22603;SDS011;11469;49.024;8.246;2023-07-16T10:10:20;8.27;;;2.63;;
22603;SDS011;11469;49.024;8.246;2023-07-16T10:12:56;10.90;;;3.05;;
22603;SDS011;11469;49.024;8.246;2023-07-16T10:15:28;10.95;;;3.00;;
22603;SDS011;11469;49.024;8.246;2023-07-16T10:17:55;7.82;;;2.83;;
22603;SDS011;11469;49.024;8.246;2023-07-16T10:20:31;10.43;;;2.63;;
22603;SDS011;11469;49.024;8.246;2023-07-16T10:22:57;8.40;;;2.25;;
22603;SDS011;11469;49.024;8.246;2023-07-16T10:25:23;9.45;;;2.17;;
22603;SDS011;11469;49.024;8.246;2023-07-16T10:27:51;11.90;;;2.90;;
22603;SDS011;11469;49.024;8.246;2023-07-16T10:30:17;10.00;;;2.45;;
22603;SDS011;11469;49.024;8.246;2023-07-16T10:32:43;5.90;;;1.90;;
22603;SDS011;11469;49.024;8.246;2023-07-16T10:35:10;10.20;;;2.30;;
22603;SDS011;11469;49.024;8.246;2023-07-16T10:37:36;11.68;;;3.10;;
22603;SDS011;11469;49.024;8.246;2023-07-16T10:40:03;10.40;;;3.25;;
22603;SDS011;11469;49.024;8.246;2023-07-16T10:42:29;11.95;;;3.10;;
22603;SDS011;11469;49.024;8.246;2023-07-16T10:44:58;7.60;;;2.35;;
22603;SDS011;11469;49.024;8.246;2023-07-16T10:47:32;12.20;;;2.92;;
22603;SDS011;11469;49.024;8.246;2023-07-16T10:49:59;10.27;;;2.67;;
22603;SDS011;11469;49.024;8.246;2023-07-16T10:52:25;11.98;;;2.63;;
22603;SDS011;11469;49.024;8.246;2023-07-16T10:54:51;9.05;;;2.28;;
22603;SDS011;11469;49.024;8.246;2023-07-16T10:57:22;10.15;;;2.50;;
22603;SDS011;11469;49.024;8.246;2023-07-16T10:59:50;12.15;;;2.42;;
22603;SDS011;11469;49.024;8.246;2023-07-16T11:02:16;9.80;;;2.63;;
22603;SDS011;11469;49.024;8.246;2023-07-16T11:04:43;7.22;;;2.50;;
22603;SDS011;11469;49.024;8.246;2023-07-16T11:07:11;9.52;;;2.42;;
22603;SDS011;11469;49.024;8.246;2023-07-16T11:09:48;8.88;;;2.55;;
22603;SDS011;11469;49.024;8.246;2023-07-16T11:12:18;13.10;;;2.97;;
22603;SDS011;11469;49.024;8.246;2023-07-16T11:14:51;11.43;;;2.22;;
22603;SDS011;11469;49.024;8.246;2023-07-16T11:17:17;7.18;;;2.40;;
22603;SDS011;11469;49.024;8.246;2023-07-16T11:19:46;11.15;;;2.45;;
22603;SDS011;11469;49.024;8.246;2023-07-16T11:22:13;9.55;;;2.50;;
22603;SDS011;11469;49.024;8.246;2023-07-16T11:24:39;8.48;;;2.53;;
22603;SDS011;11469;49.024;8.246;2023-07-16T11:27:12;8.80;;;2.15;;
22603;SDS011;11469;49.024;8.246;2023-07-16T11:29:46;5.57;;;1.90;;
22603;SDS011;11469;49.024;8.246;2023-07-16T11:32:13;8.40;;;2.20;;
22603;SDS011;11469;49.024;8.246;2023-07-16T11:34:51;8.75;;;2.67;;
22603;SDS011;11469;49.024;8.246;2023-07-16T11:37:17;6.75;;;2.42;;
22603;SDS011;11469;49.024;8.246;2023-07-16T11:39:43;10.50;;;2.42;;
22603;SDS011;11469;49.024;8.246;2023-07-16T11:42:08;8.73;;;2.47;;
22603;SDS011;11469;49.024;8.246;2023-07-16T11:44:34;8.32;;;2.42;;
22603;SDS011;11469;49.024;8.246;2023-07-16T11:47:00;13.02;;;2.63;;
22603;SDS011;11469;49.024;8.246;2023-07-16T11:49:25;9.77;;;2.45;;
22603;SDS011;11469;49.024;8.246;2023-07-16T11:51:51;10.77;;;2.85;;
22603;SDS011;11469;49.024;8.246;2023-07-16T11:54:16;15.48;;;2.50;;
22603;SDS011;11469;49.024;8.246;2023-07-16T11:56:41;12.20;;;2.72;;
22603;SDS011;11469;49.024;8.246;2023-07-16T11:59:07;8.90;;;2.40;;
22603;SDS011;11469;49.024;8.246;2023-07-16T12:01:32;13.95;;;2.25;;
22603;SDS011;11469;49.024;8.246;2023-07-16T12:03:58;6.68;;;2.47;;
22603;SDS011;11469;49.024;8.246;2023-07-16T12:06:23;14.93;;;2.85;;
22603;SDS011;11469;49.024;8.246;2023-07-16T12:08:48;10.73;;;2.50;;
22603;SDS011;11469;49.024;8.246;2023-07-16T12:11:14;10.57;;;2.42;;
22603;SDS011;11469;49.024;8.246;2023-07-16T12:13:39;10.15;;;2.20;;
22603;SDS011;11469;49.024;8.246;2023-07-16T12:16:04;10.43;;;2.22;;
22603;SDS011;11469;49.024;8.246;2023-07-16T12:18:30;9.98;;;2.33;;
22603;SDS011;11469;49.024;8.246;2023-07-16T12:20:56;7.28;;;2.60;;
22603;SDS011;11469;49.024;8.246;2023-07-16T12:23:21;10.23;;;2.20;;
22603;SDS011;11469;49.024;8.246;2023-07-16T12:25:47;5.25;;;2.10;;
22603;SDS011;11469;49.024;8.246;2023-07-16T12:28:14;7.60;;;2.70;;
22603;SDS011;11469;49.024;8.246;2023-07-16T12:30:39;9.63;;;2.60;;
22603;SDS011;11469;49.024;8.246;2023-07-16T12:33:05;5.03;;;2.20;;
22603;SDS011;11469;49.024;8.246;2023-07-16T12:35:30;10.38;;;2.67;;
22603;SDS011;11469;49.024;8.246;2023-07-16T12:37:56;12.45;;;2.67;;
22603;SDS011;11469;49.024;8.246;2023-07-16T12:40:23;8.23;;;2.58;;
22603;SDS011;11469;49.024;8.246;2023-07-16T12:42:49;13.77;;;2.63;;
22603;SDS011;11469;49.024;8.246;2023-07-16T12:45:14;8.23;;;2.42;;
22603;SDS011;11469;49.024;8.246;2023-07-16T12:47:39;6.47;;;2.28;;
22603;SDS011;11469;49.024;8.246;2023-07-16T12:50:05;8.25;;;2.22;;
22603;SDS011;11469;49.024;8.246;2023-07-16T12:52:31;10.25;;;2.25;;
22603;SDS011;11469;49.024;8.246;2023-07-16T12:54:57;7.22;;;2.35;;
22603;SDS011;11469;49.024;8.246;2023-07-16T12:57:22;6.35;;;2.40;;
22603;SDS011;11469;49.024;8.246;2023-07-16T12:59:47;7.30;;;2.05;;
22603;SDS011;11469;49.024;8.246;2023-07-16T13:02:13;10.05;;;2.45;;
22603;SDS011;11469;49.024;8.246;2023-07-16T13:04:38;10.43;;;2.63;;
22603;SDS011;11469;49.024;8.246;2023-07-16T13:07:03;6.97;;;2.15;;
22603;SDS011;11469;49.024;8.246;2023-07-16T13:09:29;12.13;;;2.38;;
22603;SDS011;11469;49.024;8.246;2023-07-16T13:11:54;5.78;;;2.10;;
22603;SDS011;11469;49.024;8.246;2023-07-16T13:14:20;9.48;;;2.63;;
22603;SDS011;11469;49.024;8.246;2023-07-16T13:16:45;9.75;;;2.45;;
22603;SDS011;11469;49.024;8.246;2023-07-16T13:19:10;5.80;;;2.47;;
22603;SDS011;11469;49.024;8.246;2023-07-16T13:21:36;13.00;;;2.80;;
22603;SDS011;11469;49.024;8.246;2023-07-16T13:24:01;8.63;;;2.47;;
22603;SDS011;11469;49.024;8.246;2023-07-16T13:26:27;10.95;;;2.15;;
22603;SDS011;11469;49.024;8.246;2023-07-16T13:28:52;9.07;;;2.80;;
22603;SDS011;11469;49.024;8.246;2023-07-16T13:31:17;9.45;;;2.75;;
22603;SDS011;11469;49.024;8.246;2023-07-16T13:33:43;5.20;;;1.92;;
22603;SDS011;11469;49.024;8.246;2023-07-16T13:36:08;6.78;;;2.55;;
22603;SDS011;11469;49.024;8.246;2023-07-16T13:38:34;8.50;;;2.50;;
22603;SDS011;11469;49.024;8.246;2023-07-16T13:40:59;8.80;;;2.50;;
22603;SDS011;11469;49.024;8.246;2023-07-16T13:43:24;7.00;;;2.28;;
22603;SDS011;11469;49.024;8.246;2023-07-16T13:45:50;9.05;;;2.42;;
22603;SDS011;11469;49.024;8.246;2023-07-16T13:48:15;7.78;;;2.63;;
22603;SDS011;11469;49.024;8.246;2023-07-16T13:50:40;8.50;;;2.50;;
22603;SDS011;11469;49.024;8.246;2023-07-16T13:53:06;6.28;;;2.17;;
22603;SDS011;11469;49.024;8.246;2023-07-16T13:55:31;10.75;;;2.60;;
22603;SDS011;11469;49.024;8.246;2023-07-16T13:57:57;8.95;;;2.60;;
22603;SDS011;11469;49.024;8.246;2023-07-16T14:00:22;7.28;;;1.88;;
22603;SDS011;11469;49.024;8.246;2023-07-16T14:02:48;7.22;;;2.35;;
22603;SDS011;11469;49.024;8.246;2023-07-16T14:05:13;9.65;;;2.47;;
22603;SDS011;11469;49.024;8.246;2023-07-16T14:07:39;5.63;;;2.25;;
22603;SDS011;11469;49.024;8.246;2023-07-16T14:10:04;7.80;;;2.30;;
22603;SDS011;11469;49.024;8.246;2023-07-16T14:12:30;8.55;;;2.25;;
22603;SDS011;11469;49.024;8.246;2023-07-16T14:14:55;8.90;;;2.35;;
22603;SDS011;11469;49.024;8.246;2023-07-16T14:17:21;8.15;;;2.22;;
22603;SDS011;11469;49.024;8.246;2023-07-16T14:19:46;6.40;;;2.20;;
22603;SDS011;11469;49.024;8.246;2023-07-16T14:22:12;6.50;;;2.22;;
22603;SDS011;11469;49.024;8.246;2023-07-16T14:24:39;6.53;;;2.72;;
22603;SDS011;11469;49.024;8.246;2023-07-16T14:27:08;10.75;;;2.65;;
22603;SDS011;11469;49.024;8.246;2023-07-16T14:29:34;9.70;;;2.50;;
22603;SDS011;11469;49.024;8.246;2023-07-16T14:32:00;5.60;;;2.28;;
22603;SDS011;11469;49.024;8.246;2023-07-16T14:34:26;9.30;;;2.53;;
22603;SDS011;11469;49.024;8.246;2023-07-16T14:36:52;9.52;;;2.25;;
22603;SDS011;11469;49.024;8.246;2023-07-16T14:39:18;8.02;;;2.40;;
22603;SDS011;11469;49.024;8.246;2023-07-16T14:41:44;9.30;;;2.55;;
22603;SDS011;11469;49.024;8.246;2023-07-16T14:44:09;6.20;;;2.50;;
22603;SDS011;11469;49.024;8.246;2023-07-16T14:46:35;10.13;;;2.30;;